Hlavní strana
METAR-TAF:

METAR-TAF

Letiště :

Pori, Finsko

zeměpisná šířka: 61-28N, zeměpisná délka: 021-48E, výška: 13 m

Aktuální stav počasí

Zpráva byla vytvořena před 25 minutami, v 13:20 UTC
Západní vítr 14 kt
Teplota 6°C
Vlhkost vzduchu 61%
Tlak 1016 hPa
Viditelnost 10 km a více
Žádná oblačnost pod 1500 m, nevyskytují se cumulonimby.

METAR: EFPO 011320Z AUTO 28014KT CAVOK 06/M01 Q1016

Čas: 15:45 (13:45 UTC)

Předpověď počasí

Zpráva byla vytvořena před 2 hodinami a 21 minutami, v 11:24 UTC
Předpověď platná od 01 v 12 UTC do 01 v 19 UTC
Západní vítr 11 kt
Viditelnost 10 km a více
Žádná oblačnost pod 1500 m, nevyskytují se cumulonimby.

TAF: EFPO 011124Z 0112/0119 26011KT CAVOK

Stav a předpovědi počasí z více než 4 000 letišť (zprávy METAR a TAF).

Červené a žluté tečky na mapě představují dostupné meteorologické stanice.

Když kurzor umístíte na tečku, zobrazí se název stanice.

Pak kliknutím zobrazíte stav a předpověď počasí.

Chcete-li změnit mapu, kliknutím na zelené tlačítko se znaménkem +mapu přiblížíte, kliknutím na zelené tlačítko se znaménkem – mapu oddálíte a kliknutím na zelené šipky přejdete na sousední mapy.


METAR-TAF: